CheckWX is a tool to help pilots better visualize weather data.  It is not intended as a substitute for an official pre-flight weather briefing.

08:19:00 UTC

LTAR TAF
Sivas Airport
Sivas, Turkey
TAF LTAR 200440Z 2006/2015 VRB02KT 9999 SCT040 BECMG 2010/2012 34012KT PROB40 TEMPO 2012/2015 35015G25KT -TSRA FEW030CB BKN035

Aug-20@
06:00 UTC

Aug-20 @ 06:00 UTC

Aug-20@
10:00 UTC

Aug-20 @ 10:00 UTC

TAF LTAR 200440Z 2006/2015 VRB02KT 9999 SCT040
Wind
  • Variable at 2 KTS
Cloud Levels
  • Scattered at 4,000' AGL

Aug-20@
10:00 UTC

Aug-20 @ 10:00 UTC

Aug-20@
15:00 UTC

Aug-20 @ 15:00 UTC

BECMG 2010/2012 34012KT

Becoming

Becoming Conditions expected by Tue, Aug 20, 2019 @ 12:00 UTC

Wind
  • 340° at 12 KTS
Cloud Levels
  • Scattered at 4,000' AGL

Aug-20@
12:00 UTC

Aug-20 @ 12:00 UTC

Aug-20@
15:00 UTC

Aug-20 @ 15:00 UTC

PROB40 TEMPO 2012/2015 35015G25KT -TSRA FEW030CB BKN035

Temporary - 40% Likelihood

Temporary - 40% Likelihood during this time.

Wind
  • 350° at 15 KTS
  • {Gusting to 25 KTS
Conditions
Light Thunderstorm, Light Rain
Cloud Levels
  • Few at 3,000' AGL
  • Broken at 3,500' AGL